sensor_id;sensor_type;location;lat;lon;timestamp;P1;durP1;ratioP1;P2;durP2;ratioP2
62808;SDS011;48848;39.002;-94.584;2022-10-16T00:01:11;4.07;;;1.45;;
62808;SDS011;48848;39.002;-94.584;2022-10-16T00:06:05;3.22;;;1.55;;
62808;SDS011;48848;39.002;-94.584;2022-10-16T00:08:33;3.75;;;1.40;;
62808;SDS011;48848;39.002;-94.584;2022-10-16T00:11:01;3.83;;;1.73;;
62808;SDS011;48848;39.002;-94.584;2022-10-16T00:13:30;3.20;;;1.50;;
62808;SDS011;48848;39.002;-94.584;2022-10-16T00:15:57;4.50;;;1.40;;
62808;SDS011;48848;39.002;-94.584;2022-10-16T00:18:24;3.70;;;1.42;;
62808;SDS011;48848;39.002;-94.584;2022-10-16T00:20:51;4.60;;;1.40;;
62808;SDS011;48848;39.002;-94.584;2022-10-16T00:23:18;3.65;;;1.67;;
62808;SDS011;48848;39.002;-94.584;2022-10-16T00:25:44;6.65;;;1.85;;
62808;SDS011;48848;39.002;-94.584;2022-10-16T00:28:19;3.50;;;1.70;;
62808;SDS011;48848;39.002;-94.584;2022-10-16T00:30:45;3.67;;;1.80;;
62808;SDS011;48848;39.002;-94.584;2022-10-16T00:33:11;4.00;;;1.50;;
62808;SDS011;48848;39.002;-94.584;2022-10-16T00:35:37;5.55;;;1.80;;
62808;SDS011;48848;39.002;-94.584;2022-10-16T00:38:03;3.22;;;1.60;;
62808;SDS011;48848;39.002;-94.584;2022-10-16T00:40:30;3.67;;;1.40;;
62808;SDS011;48848;39.002;-94.584;2022-10-16T00:42:57;3.88;;;1.73;;
62808;SDS011;48848;39.002;-94.584;2022-10-16T00:45:23;4.35;;;1.65;;
62808;SDS011;48848;39.002;-94.584;2022-10-16T00:47:50;5.03;;;1.90;;
62808;SDS011;48848;39.002;-94.584;2022-10-16T00:52:48;4.70;;;1.80;;
62808;SDS011;48848;39.002;-94.584;2022-10-16T00:55:16;4.10;;;1.70;;
62808;SDS011;48848;39.002;-94.584;2022-10-16T00:57:44;5.82;;;2.10;;
62808;SDS011;48848;39.002;-94.584;2022-10-16T01:00:13;5.32;;;1.70;;
62808;SDS011;48848;39.002;-94.584;2022-10-16T01:02:42;6.07;;;2.10;;
62808;SDS011;48848;39.002;-94.584;2022-10-16T01:05:08;4.50;;;2.00;;
62808;SDS011;48848;39.002;-94.584;2022-10-16T01:15:26;5.80;;;2.20;;
62808;SDS011;48848;39.002;-94.584;2022-10-16T01:20:54;5.45;;;2.45;;
62808;SDS011;48848;39.002;-94.584;2022-10-16T01:32:10;5.95;;;2.58;;
62808;SDS011;48848;39.002;-94.584;2022-10-16T01:34:48;5.22;;;2.50;;
62808;SDS011;48848;39.002;-94.584;2022-10-16T01:37:22;7.18;;;2.60;;
62808;SDS011;48848;39.002;-94.584;2022-10-16T01:40:05;7.63;;;2.75;;
62808;SDS011;48848;39.002;-94.584;2022-10-16T01:42:39;5.63;;;2.50;;
62808;SDS011;48848;39.002;-94.584;2022-10-16T01:45:08;6.93;;;2.65;;
62808;SDS011;48848;39.002;-94.584;2022-10-16T01:47:38;5.70;;;2.50;;
62808;SDS011;48848;39.002;-94.584;2022-10-16T01:50:06;5.43;;;2.72;;
62808;SDS011;48848;39.002;-94.584;2022-10-16T01:52:37;6.60;;;3.03;;
62808;SDS011;48848;39.002;-94.584;2022-10-16T01:55:07;6.70;;;3.33;;
62808;SDS011;48848;39.002;-94.584;2022-10-16T01:57:36;6.32;;;3.10;;
62808;SDS011;48848;39.002;-94.584;2022-10-16T02:00:10;6.90;;;3.00;;
62808;SDS011;48848;39.002;-94.584;2022-10-16T02:02:38;8.45;;;3.38;;
62808;SDS011;48848;39.002;-94.584;2022-10-16T02:07:47;7.43;;;3.45;;
62808;SDS011;48848;39.002;-94.584;2022-10-16T02:10:13;7.10;;;3.47;;
62808;SDS011;48848;39.002;-94.584;2022-10-16T02:12:41;7.45;;;3.50;;
62808;SDS011;48848;39.002;-94.584;2022-10-16T02:15:11;9.55;;;3.72;;
62808;SDS011;48848;39.002;-94.584;2022-10-16T02:17:37;9.32;;;3.53;;
62808;SDS011;48848;39.002;-94.584;2022-10-16T02:20:03;7.43;;;3.83;;
62808;SDS011;48848;39.002;-94.584;2022-10-16T02:22:32;8.82;;;3.78;;
62808;SDS011;48848;39.002;-94.584;2022-10-16T02:25:04;7.10;;;3.53;;
62808;SDS011;48848;39.002;-94.584;2022-10-16T02:27:38;7.72;;;3.60;;
62808;SDS011;48848;39.002;-94.584;2022-10-16T02:33:07;8.52;;;3.67;;
62808;SDS011;48848;39.002;-94.584;2022-10-16T02:35:38;8.43;;;3.78;;
62808;SDS011;48848;39.002;-94.584;2022-10-16T02:38:07;6.80;;;3.88;;
62808;SDS011;48848;39.002;-94.584;2022-10-16T02:40:34;7.00;;;3.47;;
62808;SDS011;48848;39.002;-94.584;2022-10-16T02:43:03;8.52;;;3.65;;
62808;SDS011;48848;39.002;-94.584;2022-10-16T02:45:30;6.57;;;3.58;;
62808;SDS011;48848;39.002;-94.584;2022-10-16T02:47:58;7.47;;;3.55;;
62808;SDS011;48848;39.002;-94.584;2022-10-16T02:50:24;8.68;;;4.00;;
62808;SDS011;48848;39.002;-94.584;2022-10-16T02:52:50;8.50;;;4.03;;
62808;SDS011;48848;39.002;-94.584;2022-10-16T02:55:16;8.13;;;3.80;;
62808;SDS011;48848;39.002;-94.584;2022-10-16T02:57:43;9.07;;;3.83;;
62808;SDS011;48848;39.002;-94.584;2022-10-16T03:00:09;9.98;;;3.85;;
62808;SDS011;48848;39.002;-94.584;2022-10-16T03:02:38;8.27;;;3.90;;
62808;SDS011;48848;39.002;-94.584;2022-10-16T03:05:05;12.38;;;4.72;;
62808;SDS011;48848;39.002;-94.584;2022-10-16T03:07:32;7.35;;;3.92;;
62808;SDS011;48848;39.002;-94.584;2022-10-16T03:09:59;11.85;;;4.55;;
62808;SDS011;48848;39.002;-94.584;2022-10-16T03:12:28;10.25;;;4.20;;
62808;SDS011;48848;39.002;-94.584;2022-10-16T03:14:55;7.90;;;4.05;;
62808;SDS011;48848;39.002;-94.584;2022-10-16T03:17:22;9.45;;;4.60;;
62808;SDS011;48848;39.002;-94.584;2022-10-16T03:19:48;10.90;;;4.10;;
62808;SDS011;48848;39.002;-94.584;2022-10-16T03:22:14;7.90;;;4.10;;
62808;SDS011;48848;39.002;-94.584;2022-10-16T03:24:41;8.90;;;4.25;;
62808;SDS011;48848;39.002;-94.584;2022-10-16T03:27:07;8.55;;;3.95;;
62808;SDS011;48848;39.002;-94.584;2022-10-16T03:29:33;9.02;;;4.25;;
62808;SDS011;48848;39.002;-94.584;2022-10-16T03:32:00;9.55;;;4.28;;
62808;SDS011;48848;39.002;-94.584;2022-10-16T03:34:26;9.20;;;4.40;;
62808;SDS011;48848;39.002;-94.584;2022-10-16T03:36:53;10.55;;;4.28;;
62808;SDS011;48848;39.002;-94.584;2022-10-16T03:39:19;9.55;;;4.32;;
62808;SDS011;48848;39.002;-94.584;2022-10-16T03:41:45;10.52;;;4.22;;
62808;SDS011;48848;39.002;-94.584;2022-10-16T03:44:11;10.35;;;4.45;;
62808;SDS011;48848;39.002;-94.584;2022-10-16T03:46:38;10.73;;;4.50;;
62808;SDS011;48848;39.002;-94.584;2022-10-16T03:49:04;10.98;;;4.53;;
62808;SDS011;48848;39.002;-94.584;2022-10-16T03:51:30;10.10;;;4.53;;
62808;SDS011;48848;39.002;-94.584;2022-10-16T03:53:57;9.15;;;4.20;;
62808;SDS011;48848;39.002;-94.584;2022-10-16T03:56:23;12.45;;;5.05;;
62808;SDS011;48848;39.002;-94.584;2022-10-16T03:58:49;10.55;;;4.50;;
62808;SDS011;48848;39.002;-94.584;2022-10-16T04:01:15;8.35;;;4.10;;
62808;SDS011;48848;39.002;-94.584;2022-10-16T04:03:41;7.88;;;4.07;;
62808;SDS011;48848;39.002;-94.584;2022-10-16T04:06:07;8.75;;;4.45;;
62808;SDS011;48848;39.002;-94.584;2022-10-16T04:08:34;8.95;;;4.18;;
62808;SDS011;48848;39.002;-94.584;2022-10-16T04:11:02;8.55;;;4.57;;
62808;SDS011;48848;39.002;-94.584;2022-10-16T04:13:28;9.15;;;4.57;;
62808;SDS011;48848;39.002;-94.584;2022-10-16T04:15:54;9.48;;;4.65;;
62808;SDS011;48848;39.002;-94.584;2022-10-16T04:18:20;9.63;;;4.18;;
62808;SDS011;48848;39.002;-94.584;2022-10-16T04:20:47;9.98;;;4.40;;
62808;SDS011;48848;39.002;-94.584;2022-10-16T04:23:13;10.85;;;4.32;;
62808;SDS011;48848;39.002;-94.584;2022-10-16T04:25:39;8.55;;;4.60;;
62808;SDS011;48848;39.002;-94.584;2022-10-16T04:28:05;7.80;;;4.32;;
62808;SDS011;48848;39.002;-94.584;2022-10-16T04:30:31;10.93;;;4.55;;
62808;SDS011;48848;39.002;-94.584;2022-10-16T04:32:58;7.50;;;4.32;;
62808;SDS011;48848;39.002;-94.584;2022-10-16T04:35:25;10.38;;;4.57;;
62808;SDS011;48848;39.002;-94.584;2022-10-16T04:37:51;10.50;;;4.45;;
62808;SDS011;48848;39.002;-94.584;2022-10-16T04:40:17;8.02;;;4.53;;
62808;SDS011;48848;39.002;-94.584;2022-10-16T04:42:43;8.93;;;4.50;;
62808;SDS011;48848;39.002;-94.584;2022-10-16T04:45:09;8.30;;;4.30;;
62808;SDS011;48848;39.002;-94.584;2022-10-16T04:47:36;9.90;;;4.72;;
62808;SDS011;48848;39.002;-94.584;2022-10-16T04:50:02;10.65;;;4.30;;
62808;SDS011;48848;39.002;-94.584;2022-10-16T04:52:29;8.45;;;4.30;;
62808;SDS011;48848;39.002;-94.584;2022-10-16T04:54:57;11.60;;;4.65;;
62808;SDS011;48848;39.002;-94.584;2022-10-16T04:57:26;9.02;;;4.70;;
62808;SDS011;48848;39.002;-94.584;2022-10-16T04:59:53;11.77;;;4.70;;
62808;SDS011;48848;39.002;-94.584;2022-10-16T05:02:19;8.32;;;4.50;;
62808;SDS011;48848;39.002;-94.584;2022-10-16T05:04:45;8.68;;;4.47;;
62808;SDS011;48848;39.002;-94.584;2022-10-16T05:07:11;8.95;;;4.57;;
62808;SDS011;48848;39.002;-94.584;2022-10-16T05:09:37;9.27;;;4.50;;
62808;SDS011;48848;39.002;-94.584;2022-10-16T05:12:04;8.07;;;4.50;;
62808;SDS011;48848;39.002;-94.584;2022-10-16T05:14:30;10.13;;;5.07;;
62808;SDS011;48848;39.002;-94.584;2022-10-16T05:16:56;8.90;;;4.35;;
62808;SDS011;48848;39.002;-94.584;2022-10-16T05:19:22;9.05;;;4.68;;
62808;SDS011;48848;39.002;-94.584;2022-10-16T05:21:48;8.80;;;4.50;;
62808;SDS011;48848;39.002;-94.584;2022-10-16T05:24:14;9.82;;;4.40;;
62808;SDS011;48848;39.002;-94.584;2022-10-16T05:26:41;8.82;;;4.25;;
62808;SDS011;48848;39.002;-94.584;2022-10-16T05:29:07;9.63;;;4.75;;
62808;SDS011;48848;39.002;-94.584;2022-10-16T05:31:34;9.05;;;4.43;;
62808;SDS011;48848;39.002;-94.584;2022-10-16T05:34:00;8.43;;;4.60;;
62808;SDS011;48848;39.002;-94.584;2022-10-16T05:36:27;8.88;;;4.47;;
62808;SDS011;48848;39.002;-94.584;2022-10-16T05:38:53;6.97;;;4.07;;
62808;SDS011;48848;39.002;-94.584;2022-10-16T05:41:19;8.23;;;4.03;;
62808;SDS011;48848;39.002;-94.584;2022-10-16T05:43:47;9.13;;;4.30;;
62808;SDS011;48848;39.002;-94.584;2022-10-16T05:46:14;8.65;;;3.90;;
62808;SDS011;48848;39.002;-94.584;2022-10-16T05:48:40;8.75;;;4.07;;
62808;SDS011;48848;39.002;-94.584;2022-10-16T05:51:08;8.30;;;3.92;;
62808;SDS011;48848;39.002;-94.584;2022-10-16T05:53:36;8.95;;;4.32;;
62808;SDS011;48848;39.002;-94.584;2022-10-16T05:56:04;8.40;;;4.25;;
62808;SDS011;48848;39.002;-94.584;2022-10-16T05:58:32;10.88;;;4.10;;
62808;SDS011;48848;39.002;-94.584;2022-10-16T06:01:01;7.57;;;4.00;;
62808;SDS011;48848;39.002;-94.584;2022-10-16T06:03:29;9.85;;;4.07;;
62808;SDS011;48848;39.002;-94.584;2022-10-16T06:05:55;9.40;;;4.38;;
62808;SDS011;48848;39.002;-94.584;2022-10-16T06:08:22;7.05;;;3.92;;
62808;SDS011;48848;39.002;-94.584;2022-10-16T06:10:49;8.05;;;4.28;;
62808;SDS011;48848;39.002;-94.584;2022-10-16T06:13:30;8.20;;;3.97;;
62808;SDS011;48848;39.002;-94.584;2022-10-16T06:15:56;11.30;;;3.67;;
62808;SDS011;48848;39.002;-94.584;2022-10-16T06:18:24;8.07;;;3.90;;
62808;SDS011;48848;39.002;-94.584;2022-10-16T06:20:51;8.30;;;4.07;;
62808;SDS011;48848;39.002;-94.584;2022-10-16T06:23:17;7.22;;;3.97;;
62808;SDS011;48848;39.002;-94.584;2022-10-16T06:25:43;7.78;;;3.75;;
62808;SDS011;48848;39.002;-94.584;2022-10-16T06:28:10;10.23;;;4.22;;
62808;SDS011;48848;39.002;-94.584;2022-10-16T06:30:36;8.35;;;4.05;;
62808;SDS011;48848;39.002;-94.584;2022-10-16T06:33:02;6.75;;;3.65;;
62808;SDS011;48848;39.002;-94.584;2022-10-16T06:35:28;7.57;;;3.50;;
62808;SDS011;48848;39.002;-94.584;2022-10-16T06:37:54;7.72;;;3.60;;
62808;SDS011;48848;39.002;-94.584;2022-10-16T06:40:20;6.60;;;3.80;;
62808;SDS011;48848;39.002;-94.584;2022-10-16T06:42:47;7.75;;;3.75;;
62808;SDS011;48848;39.002;-94.584;2022-10-16T06:45:13;9.13;;;3.75;;
62808;SDS011;48848;39.002;-94.584;2022-10-16T06:47:39;7.75;;;3.90;;
62808;SDS011;48848;39.002;-94.584;2022-10-16T06:50:05;7.97;;;3.83;;
62808;SDS011;48848;39.002;-94.584;2022-10-16T06:52:33;8.27;;;3.92;;
62808;SDS011;48848;39.002;-94.584;2022-10-16T06:54:59;8.43;;;3.75;;
62808;SDS011;48848;39.002;-94.584;2022-10-16T06:57:26;7.75;;;3.38;;
62808;SDS011;48848;39.002;-94.584;2022-10-16T06:59:52;6.25;;;3.20;;
62808;SDS011;48848;39.002;-94.584;2022-10-16T07:02:19;7.05;;;3.40;;
62808;SDS011;48848;39.002;-94.584;2022-10-16T07:04:45;8.45;;;3.30;;
62808;SDS011;48848;39.002;-94.584;2022-10-16T07:07:11;7.40;;;3.35;;
62808;SDS011;48848;39.002;-94.584;2022-10-16T07:09:37;6.38;;;3.30;;
62808;SDS011;48848;39.002;-94.584;2022-10-16T07:12:03;6.47;;;3.45;;
62808;SDS011;48848;39.002;-94.584;2022-10-16T07:14:30;8.27;;;3.30;;
62808;SDS011;48848;39.002;-94.584;2022-10-16T07:16:56;7.32;;;3.70;;
62808;SDS011;48848;39.002;-94.584;2022-10-16T07:19:22;8.68;;;3.10;;
62808;SDS011;48848;39.002;-94.584;2022-10-16T07:21:48;6.63;;;3.10;;
62808;SDS011;48848;39.002;-94.584;2022-10-16T07:24:15;5.78;;;3.15;;
62808;SDS011;48848;39.002;-94.584;2022-10-16T07:26:42;10.18;;;3.70;;
62808;SDS011;48848;39.002;-94.584;2022-10-16T07:29:13;11.57;;;3.50;;
62808;SDS011;48848;39.002;-94.584;2022-10-16T07:31:42;6.68;;;3.83;;
62808;SDS011;48848;39.002;-94.584;2022-10-16T07:34:09;6.10;;;3.20;;
62808;SDS011;48848;39.002;-94.584;2022-10-16T07:36:37;8.73;;;3.00;;
62808;SDS011;48848;39.002;-94.584;2022-10-16T07:39:03;5.45;;;2.90;;
62808;SDS011;48848;39.002;-94.584;2022-10-16T07:41:29;7.30;;;3.95;;
62808;SDS011;48848;39.002;-94.584;2022-10-16T07:43:58;6.13;;;3.05;;
62808;SDS011;48848;39.002;-94.584;2022-10-16T07:46:27;7.00;;;3.17;;
62808;SDS011;48848;39.002;-94.584;2022-10-16T07:48:54;5.80;;;2.90;;
62808;SDS011;48848;39.002;-94.584;2022-10-16T07:51:21;6.15;;;2.92;;
62808;SDS011;48848;39.002;-94.584;2022-10-16T07:53:49;5.30;;;2.88;;
62808;SDS011;48848;39.002;-94.584;2022-10-16T07:56:16;7.32;;;3.10;;
62808;SDS011;48848;39.002;-94.584;2022-10-16T07:58:43;7.03;;;3.00;;
62808;SDS011;48848;39.002;-94.584;2022-10-16T08:01:11;7.05;;;3.22;;
62808;SDS011;48848;39.002;-94.584;2022-10-16T08:03:42;5.53;;;2.90;;
62808;SDS011;48848;39.002;-94.584;2022-10-16T08:06:13;5.95;;;3.08;;
62808;SDS011;48848;39.002;-94.584;2022-10-16T08:08:40;6.22;;;2.72;;
62808;SDS011;48848;39.002;-94.584;2022-10-16T08:11:07;5.82;;;2.97;;
62808;SDS011;48848;39.002;-94.584;2022-10-16T08:13:33;6.95;;;3.00;;
62808;SDS011;48848;39.002;-94.584;2022-10-16T08:16:00;5.10;;;2.72;;
62808;SDS011;48848;39.002;-94.584;2022-10-16T08:18:26;7.13;;;2.70;;
62808;SDS011;48848;39.002;-94.584;2022-10-16T08:20:56;6.80;;;3.15;;
62808;SDS011;48848;39.002;-94.584;2022-10-16T08:23:25;5.63;;;2.70;;
62808;SDS011;48848;39.002;-94.584;2022-10-16T08:25:52;7.97;;;3.45;;
62808;SDS011;48848;39.002;-94.584;2022-10-16T08:28:27;4.05;;;2.58;;
62808;SDS011;48848;39.002;-94.584;2022-10-16T08:30:53;5.60;;;2.40;;
62808;SDS011;48848;39.002;-94.584;2022-10-16T08:33:21;8.90;;;3.00;;
62808;SDS011;48848;39.002;-94.584;2022-10-16T08:35:51;6.40;;;2.92;;
62808;SDS011;48848;39.002;-94.584;2022-10-16T08:38:18;7.43;;;3.00;;
62808;SDS011;48848;39.002;-94.584;2022-10-16T08:40:45;7.90;;;3.53;;
62808;SDS011;48848;39.002;-94.584;2022-10-16T08:48:50;5.22;;;2.53;;
62808;SDS011;48848;39.002;-94.584;2022-10-16T08:51:31;5.18;;;2.58;;
62808;SDS011;48848;39.002;-94.584;2022-10-16T08:54:02;10.68;;;2.88;;
62808;SDS011;48848;39.002;-94.584;2022-10-16T08:56:53;5.53;;;2.75;;
62808;SDS011;48848;39.002;-94.584;2022-10-16T08:59:21;6.00;;;2.60;;
62808;SDS011;48848;39.002;-94.584;2022-10-16T09:01:49;7.88;;;2.92;;
62808;SDS011;48848;39.002;-94.584;2022-10-16T09:12:48;7.57;;;2.70;;
62808;SDS011;48848;39.002;-94.584;2022-10-16T09:18:40;5.93;;;2.60;;
62808;SDS011;48848;39.002;-94.584;2022-10-16T09:21:27;5.93;;;2.70;;
62808;SDS011;48848;39.002;-94.584;2022-10-16T09:24:07;5.68;;;2.25;;
62808;SDS011;48848;39.002;-94.584;2022-10-16T09:26:44;4.60;;;2.42;;
62808;SDS011;48848;39.002;-94.584;2022-10-16T09:29:14;8.65;;;2.80;;
62808;SDS011;48848;39.002;-94.584;2022-10-16T09:31:42;5.70;;;2.55;;
62808;SDS011;48848;39.002;-94.584;2022-10-16T09:36:53;5.25;;;2.40;;
62808;SDS011;48848;39.002;-94.584;2022-10-16T09:39:21;6.07;;;2.88;;
62808;SDS011;48848;39.002;-94.584;2022-10-16T09:41:47;6.90;;;2.50;;
62808;SDS011;48848;39.002;-94.584;2022-10-16T09:46:45;5.65;;;2.70;;
62808;SDS011;48848;39.002;-94.584;2022-10-16T09:49:22;6.43;;;2.75;;
62808;SDS011;48848;39.002;-94.584;2022-10-16T09:51:50;5.35;;;2.40;;
62808;SDS011;48848;39.002;-94.584;2022-10-16T09:54:27;7.32;;;2.83;;
62808;SDS011;48848;39.002;-94.584;2022-10-16T09:57:03;5.53;;;2.72;;
62808;SDS011;48848;39.002;-94.584;2022-10-16T09:59:31;5.47;;;2.80;;
62808;SDS011;48848;39.002;-94.584;2022-10-16T10:02:00;6.90;;;2.50;;
62808;SDS011;48848;39.002;-94.584;2022-10-16T10:04:37;6.35;;;2.40;;
62808;SDS011;48848;39.002;-94.584;2022-10-16T10:07:06;5.50;;;2.25;;
62808;SDS011;48848;39.002;-94.584;2022-10-16T10:09:46;4.80;;;2.33;;
62808;SDS011;48848;39.002;-94.584;2022-10-16T10:12:23;6.80;;;2.40;;
62808;SDS011;48848;39.002;-94.584;2022-10-16T10:14:57;4.55;;;2.13;;
62808;SDS011;48848;39.002;-94.584;2022-10-16T10:17:29;5.80;;;2.58;;
62808;SDS011;48848;39.002;-94.584;2022-10-16T10:19:57;8.73;;;2.38;;
62808;SDS011;48848;39.002;-94.584;2022-10-16T10:22:44;11.50;;;2.50;;
62808;SDS011;48848;39.002;-94.584;2022-10-16T10:38:59;8.05;;;2.58;;
62808;SDS011;48848;39.002;-94.584;2022-10-16T10:44:11;5.45;;;2.20;;
62808;SDS011;48848;39.002;-94.584;2022-10-16T10:46:44;5.35;;;2.65;;
62808;SDS011;48848;39.002;-94.584;2022-10-16T10:50:02;4.97;;;2.15;;
62808;SDS011;48848;39.002;-94.584;2022-10-16T10:53:24;6.45;;;2.25;;
62808;SDS011;48848;39.002;-94.584;2022-10-16T10:58:55;4.75;;;2.45;;
62808;SDS011;48848;39.002;-94.584;2022-10-16T11:01:39;5.45;;;2.30;;
62808;SDS011;48848;39.002;-94.584;2022-10-16T11:07:02;4.78;;;2.33;;
62808;SDS011;48848;39.002;-94.584;2022-10-16T11:09:34;5.78;;;2.42;;
62808;SDS011;48848;39.002;-94.584;2022-10-16T11:17:40;5.22;;;2.28;;
62808;SDS011;48848;39.002;-94.584;2022-10-16T11:20:15;6.97;;;2.40;;
62808;SDS011;48848;39.002;-94.584;2022-10-16T11:25:44;5.78;;;2.20;;
62808;SDS011;48848;39.002;-94.584;2022-10-16T11:28:23;5.07;;;2.20;;
62808;SDS011;48848;39.002;-94.584;2022-10-16T11:31:44;4.78;;;2.30;;
62808;SDS011;48848;39.002;-94.584;2022-10-16T11:34:10;4.82;;;2.10;;
62808;SDS011;48848;39.002;-94.584;2022-10-16T11:39:24;6.13;;;2.25;;
62808;SDS011;48848;39.002;-94.584;2022-10-16T11:50:11;5.50;;;2.20;;
62808;SDS011;48848;39.002;-94.584;2022-10-16T11:53:01;6.25;;;2.20;;
62808;SDS011;48848;39.002;-94.584;2022-10-16T11:55:39;4.85;;;2.40;;
62808;SDS011;48848;39.002;-94.584;2022-10-16T11:58:26;5.95;;;2.10;;
62808;SDS011;48848;39.002;-94.584;2022-10-16T12:01:16;5.88;;;2.60;;
62808;SDS011;48848;39.002;-94.584;2022-10-16T12:07:26;4.05;;;2.00;;
62808;SDS011;48848;39.002;-94.584;2022-10-16T12:09:57;5.63;;;2.08;;
62808;SDS011;48848;39.002;-94.584;2022-10-16T12:15:02;4.95;;;2.30;;
62808;SDS011;48848;39.002;-94.584;2022-10-16T12:17:36;8.65;;;2.38;;
62808;SDS011;48848;39.002;-94.584;2022-10-16T12:22:53;5.13;;;2.20;;
62808;SDS011;48848;39.002;-94.584;2022-10-16T12:25:31;5.65;;;2.30;;
62808;SDS011;48848;39.002;-94.584;2022-10-16T12:28:00;6.05;;;2.10;;
62808;SDS011;48848;39.002;-94.584;2022-10-16T12:30:35;5.90;;;1.90;;
62808;SDS011;48848;39.002;-94.584;2022-10-16T12:33:05;4.57;;;2.05;;
62808;SDS011;48848;39.002;-94.584;2022-10-16T12:35:46;4.38;;;2.00;;
62808;SDS011;48848;39.002;-94.584;2022-10-16T12:38:15;5.50;;;2.00;;
62808;SDS011;48848;39.002;-94.584;2022-10-16T12:43:46;4.10;;;2.05;;
62808;SDS011;48848;39.002;-94.584;2022-10-16T12:48:40;6.07;;;1.90;;
62808;SDS011;48848;39.002;-94.584;2022-10-16T12:53:58;7.88;;;2.35;;
62808;SDS011;48848;39.002;-94.584;2022-10-16T13:05:26;4.43;;;1.95;;
62808;SDS011;48848;39.002;-94.584;2022-10-16T13:08:18;6.25;;;1.80;;
62808;SDS011;48848;39.002;-94.584;2022-10-16T13:16:27;6.32;;;2.20;;
62808;SDS011;48848;39.002;-94.584;2022-10-16T13:22:43;5.33;;;2.00;;
62808;SDS011;48848;39.002;-94.584;2022-10-16T13:28:15;5.78;;;1.90;;
62808;SDS011;48848;39.002;-94.584;2022-10-16T13:30:54;4.68;;;2.08;;
62808;SDS011;48848;39.002;-94.584;2022-10-16T13:36:00;4.35;;;1.92;;
62808;SDS011;48848;39.002;-94.584;2022-10-16T13:38:31;4.93;;;2.10;;
62808;SDS011;48848;39.002;-94.584;2022-10-16T13:41:00;7.28;;;2.08;;
62808;SDS011;48848;39.002;-94.584;2022-10-16T13:43:35;6.68;;;2.10;;
62808;SDS011;48848;39.002;-94.584;2022-10-16T13:46:10;5.68;;;1.98;;
62808;SDS011;48848;39.002;-94.584;2022-10-16T13:48:41;6.15;;;1.98;;
62808;SDS011;48848;39.002;-94.584;2022-10-16T13:51:16;5.43;;;2.00;;
62808;SDS011;48848;39.002;-94.584;2022-10-16T13:53:44;3.95;;;1.92;;
62808;SDS011;48848;39.002;-94.584;2022-10-16T13:56:15;4.32;;;1.92;;
62808;SDS011;48848;39.002;-94.584;2022-10-16T13:58:43;6.55;;;2.17;;
62808;SDS011;48848;39.002;-94.584;2022-10-16T14:03:45;3.42;;;1.70;;
62808;SDS011;48848;39.002;-94.584;2022-10-16T14:06:14;4.60;;;1.77;;
62808;SDS011;48848;39.002;-94.584;2022-10-16T14:08:43;5.50;;;2.05;;
62808;SDS011;48848;39.002;-94.584;2022-10-16T14:11:19;4.32;;;2.10;;
62808;SDS011;48848;39.002;-94.584;2022-10-16T14:13:48;5.28;;;2.10;;
62808;SDS011;48848;39.002;-94.584;2022-10-16T14:16:17;6.38;;;1.80;;
62808;SDS011;48848;39.002;-94.584;2022-10-16T14:21:29;4.43;;;1.77;;
62808;SDS011;48848;39.002;-94.584;2022-10-16T14:23:55;3.97;;;1.70;;
62808;SDS011;48848;39.002;-94.584;2022-10-16T14:26:23;5.80;;;1.92;;
62808;SDS011;48848;39.002;-94.584;2022-10-16T14:29:03;3.72;;;1.80;;
62808;SDS011;48848;39.002;-94.584;2022-10-16T14:31:38;6.53;;;1.98;;
62808;SDS011;48848;39.002;-94.584;2022-10-16T14:34:22;3.05;;;1.70;;
62808;SDS011;48848;39.002;-94.584;2022-10-16T14:37:10;5.53;;;1.80;;
62808;SDS011;48848;39.002;-94.584;2022-10-16T14:39:57;5.53;;;1.65;;
62808;SDS011;48848;39.002;-94.584;2022-10-16T14:42:25;4.43;;;1.73;;
62808;SDS011;48848;39.002;-94.584;2022-10-16T14:44:52;4.35;;;2.13;;
62808;SDS011;48848;39.002;-94.584;2022-10-16T14:47:20;3.50;;;1.75;;
62808;SDS011;48848;39.002;-94.584;2022-10-16T14:49:51;4.53;;;1.80;;
62808;SDS011;48848;39.002;-94.584;2022-10-16T14:52:20;7.45;;;1.80;;
62808;SDS011;48848;39.002;-94.584;2022-10-16T14:54:49;2.70;;;1.50;;
62808;SDS011;48848;39.002;-94.584;2022-10-16T14:57:21;3.75;;;1.67;;
62808;SDS011;48848;39.002;-94.584;2022-10-16T14:59:49;5.20;;;1.70;;
62808;SDS011;48848;39.002;-94.584;2022-10-16T15:02:26;5.25;;;2.20;;
62808;SDS011;48848;39.002;-94.584;2022-10-16T15:04:57;4.15;;;1.70;;
62808;SDS011;48848;39.002;-94.584;2022-10-16T15:07:30;6.18;;;1.90;;
62808;SDS011;48848;39.002;-94.584;2022-10-16T15:09:56;4.53;;;1.60;;
62808;SDS011;48848;39.002;-94.584;2022-10-16T15:12:23;3.65;;;1.92;;
62808;SDS011;48848;39.002;-94.584;2022-10-16T15:14:49;4.95;;;1.65;;
62808;SDS011;48848;39.002;-94.584;2022-10-16T15:17:15;3.90;;;1.80;;
62808;SDS011;48848;39.002;-94.584;2022-10-16T15:19:41;3.13;;;1.50;;
62808;SDS011;48848;39.002;-94.584;2022-10-16T15:22:09;7.07;;;1.83;;
62808;SDS011;48848;39.002;-94.584;2022-10-16T15:24:37;3.25;;;1.50;;
62808;SDS011;48848;39.002;-94.584;2022-10-16T15:27:03;2.60;;;1.50;;
62808;SDS011;48848;39.002;-94.584;2022-10-16T15:29:29;4.22;;;1.80;;
62808;SDS011;48848;39.002;-94.584;2022-10-16T15:31:56;4.20;;;1.90;;
62808;SDS011;48848;39.002;-94.584;2022-10-16T15:34:22;3.58;;;1.65;;
62808;SDS011;48848;39.002;-94.584;2022-10-16T15:36:48;5.93;;;1.70;;
62808;SDS011;48848;39.002;-94.584;2022-10-16T15:39:16;4.25;;;1.63;;
62808;SDS011;48848;39.002;-94.584;2022-10-16T15:41:44;4.00;;;1.83;;
62808;SDS011;48848;39.002;-94.584;2022-10-16T15:44:19;4.15;;;1.80;;
62808;SDS011;48848;39.002;-94.584;2022-10-16T15:46:48;4.63;;;1.70;;
62808;SDS011;48848;39.002;-94.584;2022-10-16T15:49:14;4.55;;;1.70;;
62808;SDS011;48848;39.002;-94.584;2022-10-16T15:51:41;4.65;;;1.70;;
62808;SDS011;48848;39.002;-94.584;2022-10-16T15:54:08;4.32;;;1.60;;
62808;SDS011;48848;39.002;-94.584;2022-10-16T15:56:34;3.38;;;1.58;;
62808;SDS011;48848;39.002;-94.584;2022-10-16T15:59:02;6.28;;;1.92;;
62808;SDS011;48848;39.002;-94.584;2022-10-16T16:01:31;3.50;;;1.60;;
62808;SDS011;48848;39.002;-94.584;2022-10-16T16:03:59;3.13;;;1.67;;
62808;SDS011;48848;39.002;-94.584;2022-10-16T16:06:25;3.92;;;1.65;;
62808;SDS011;48848;39.002;-94.584;2022-10-16T16:08:52;3.63;;;1.63;;
62808;SDS011;48848;39.002;-94.584;2022-10-16T16:11:18;4.20;;;1.75;;
62808;SDS011;48848;39.002;-94.584;2022-10-16T16:13:45;4.53;;;2.10;;
62808;SDS011;48848;39.002;-94.584;2022-10-16T16:16:12;3.95;;;1.75;;
62808;SDS011;48848;39.002;-94.584;2022-10-16T16:18:40;5.60;;;1.83;;
62808;SDS011;48848;39.002;-94.584;2022-10-16T16:21:07;7.80;;;2.13;;
62808;SDS011;48848;39.002;-94.584;2022-10-16T16:23:34;4.63;;;1.70;;
62808;SDS011;48848;39.002;-94.584;2022-10-16T16:26:05;4.78;;;1.58;;
62808;SDS011;48848;39.002;-94.584;2022-10-16T16:28:35;3.78;;;1.50;;
62808;SDS011;48848;39.002;-94.584;2022-10-16T16:31:02;5.35;;;2.05;;
62808;SDS011;48848;39.002;-94.584;2022-10-16T16:33:28;3.47;;;1.45;;
62808;SDS011;48848;39.002;-94.584;2022-10-16T16:35:56;4.63;;;1.70;;
62808;SDS011;48848;39.002;-94.584;2022-10-16T16:38:27;7.73;;;1.80;;
62808;SDS011;48848;39.002;-94.584;2022-10-16T16:40:53;3.83;;;1.60;;
62808;SDS011;48848;39.002;-94.584;2022-10-16T16:43:23;7.43;;;1.92;;
62808;SDS011;48848;39.002;-94.584;2022-10-16T16:45:53;4.22;;;1.60;;
62808;SDS011;48848;39.002;-94.584;2022-10-16T16:48:20;5.63;;;1.75;;
62808;SDS011;48848;39.002;-94.584;2022-10-16T16:50:47;4.95;;;1.70;;
62808;SDS011;48848;39.002;-94.584;2022-10-16T16:53:13;4.15;;;1.90;;
62808;SDS011;48848;39.002;-94.584;2022-10-16T16:55:39;3.60;;;1.80;;